Time;durP1;ratioP1;P1;durP2;ratioP2;P2;SDS_P1;SDS_P2;PMS_P1;PMS_P2;Temp;Humidity;BMP_temperature;BMP_pressure;BME280_temperature;BME280_humidity;BME280_pressure;Samples;Min_cycle;Max_cycle;Signal;HPM_P1;HPM_P2
2022/07/06 00:01:50;;;;;;;3.20;1.83;;;13.80;99.90;;;;;;4995773;28;20054;-65
2022/07/06 00:04:17;;;;;;;3.40;1.40;;;13.80;99.90;;;;;;5011327;28;20039;-65
2022/07/06 00:06:43;;;;;;;3.63;1.52;;;13.80;99.90;;;;;;4995768;28;20501;-65
2022/07/06 00:09:09;;;;;;;4.80;1.83;;;13.80;99.90;;;;;;4997272;28;20030;-65
2022/07/06 00:11:35;;;;;;;4.45;1.80;;;13.90;99.90;;;;;;5015775;28;20396;-65
2022/07/06 00:14:00;;;;;;;5.80;1.73;;;13.90;99.90;;;;;;5014284;28;20042;-65
2022/07/06 00:16:26;;;;;;;6.05;1.73;;;13.90;99.90;;;;;;5011471;28;20419;-65
2022/07/06 00:18:52;;;;;;;6.03;2.15;;;13.90;99.90;;;;;;5014488;28;20045;-65
2022/07/06 00:21:18;;;;;;;6.18;1.45;;;13.90;99.90;;;;;;5014271;28;20068;-64
2022/07/06 00:23:44;;;;;;;5.82;1.55;;;13.90;99.90;;;;;;4998087;28;20037;-64
2022/07/06 00:26:10;;;;;;;4.97;1.50;;;13.90;99.90;;;;;;5015247;28;20184;-65
2022/07/06 00:28:36;;;;;;;4.82;1.50;;;13.90;99.90;;;;;;5015281;28;20506;-65
2022/07/06 00:31:02;;;;;;;5.70;1.92;;;13.90;99.90;;;;;;4997779;28;20133;-65
2022/07/06 00:33:28;;;;;;;2.38;1.30;;;13.90;99.90;;;;;;5015339;28;20454;-65
2022/07/06 00:35:54;;;;;;;6.30;1.92;;;13.90;99.90;;;;;;4997580;28;20038;-65
2022/07/06 00:38:20;;;;;;;2.70;1.33;;;13.90;99.90;;;;;;5014188;28;20563;-65
2022/07/06 00:40:46;;;;;;;6.72;1.52;;;13.90;99.90;;;;;;5014055;28;20108;-65
2022/07/06 00:43:11;;;;;;;5.53;1.50;;;13.90;99.90;;;;;;5014057;28;20034;-65
2022/07/06 00:45:37;;;;;;;5.20;1.60;;;13.90;99.90;;;;;;5011456;28;20050;-65
2022/07/06 00:48:03;;;;;;;4.82;1.55;;;13.90;99.90;;;;;;5013684;28;20041;-65
2022/07/06 00:50:30;;;;;;;3.38;1.48;;;13.90;99.90;;;;;;4997513;28;20050;-65
2022/07/06 00:53:06;;;;;;;6.22;1.35;;;13.90;99.90;;;;;;5014888;28;20565;-65
2022/07/06 00:55:34;;;;;;;4.47;1.88;;;13.90;99.90;;;;;;5014804;28;20092;-65
2022/07/06 00:58:02;;;;;;;3.97;1.58;;;13.90;99.90;;;;;;5013113;28;20038;-65
2022/07/06 01:00:29;;;;;;;4.60;1.50;;;13.90;99.90;;;;;;5013801;28;20271;-65
2022/07/06 01:02:55;;;;;;;5.50;1.92;;;13.90;99.90;;;;;;5013161;28;20439;-65
2022/07/06 01:05:22;;;;;;;3.45;1.80;;;13.90;99.90;;;;;;5013485;28;20504;-65
2022/07/06 01:07:49;;;;;;;7.43;1.90;;;13.90;99.90;;;;;;5014671;28;20045;-65
2022/07/06 01:10:17;;;;;;;5.78;1.63;;;13.80;99.90;;;;;;4986640;28;20053;-65
2022/07/06 01:12:44;;;;;;;4.63;1.65;;;13.90;99.90;;;;;;4995168;28;20046;-65
2022/07/06 01:15:16;;;;;;;6.63;2.00;;;13.90;99.90;;;;;;4991444;28;20053;-65
2022/07/06 01:17:43;;;;;;;6.43;2.00;;;13.90;99.90;;;;;;4977361;28;20043;-65
2022/07/06 01:20:11;;;;;;;3.97;2.15;;;13.90;99.90;;;;;;4993615;28;20030;-65
2022/07/06 01:22:38;;;;;;;5.60;1.60;;;13.90;99.90;;;;;;4977566;28;20050;-65
2022/07/06 01:25:06;;;;;;;4.45;1.45;;;13.80;99.90;;;;;;4993457;28;20038;-65
2022/07/06 01:27:34;;;;;;;7.57;2.08;;;13.90;99.90;;;;;;4977171;28;20046;-65
2022/07/06 01:30:00;;;;;;;5.68;1.63;;;13.80;99.90;;;;;;4993377;28;20522;-65
2022/07/06 01:32:26;;;;;;;3.53;1.63;;;13.80;99.90;;;;;;4993314;28;20125;-65
2022/07/06 01:34:52;;;;;;;6.63;1.85;;;13.80;99.90;;;;;;4977314;28;20133;-65
2022/07/06 01:37:18;;;;;;;6.35;2.25;;;13.80;99.90;;;;;;4976972;28;20050;-65
2022/07/06 01:39:44;;;;;;;5.45;1.85;;;13.80;99.90;;;;;;4994455;28;20109;-65
2022/07/06 01:42:09;;;;;;;5.85;1.90;;;13.70;99.90;;;;;;4976967;28;20554;-65
2022/07/06 01:44:35;;;;;;;5.75;1.90;;;13.80;99.90;;;;;;4993666;28;20042;-65
2022/07/06 01:47:01;;;;;;;6.53;1.80;;;13.80;99.90;;;;;;4975219;28;20073;-65
2022/07/06 01:49:27;;;;;;;6.57;1.90;;;13.80;99.90;;;;;;4993112;28;20065;-65
2022/07/06 01:51:53;;;;;;;5.78;2.55;;;13.80;99.90;;;;;;4994165;28;20050;-65
2022/07/06 01:54:18;;;;;;;4.20;1.75;;;13.80;99.90;;;;;;4994446;28;20627;-65
2022/07/06 01:56:44;;;;;;;5.05;1.60;;;13.80;99.90;;;;;;4994168;28;20496;-65
2022/07/06 01:59:10;;;;;;;4.57;1.80;;;13.80;99.90;;;;;;4994056;28;20054;-65
2022/07/06 02:01:36;;;;;;;5.20;1.73;;;13.80;99.90;;;;;;4992770;28;20077;-65
2022/07/06 02:04:02;;;;;;;4.13;1.52;;;13.80;99.90;;;;;;4992750;28;20085;-65
2022/07/06 02:06:27;;;;;;;7.10;2.00;;;13.90;99.90;;;;;;4994005;28;20117;-65
2022/07/06 02:08:54;;;;;;;5.78;2.05;;;13.90;99.90;;;;;;4975566;28;20100;-65
2022/07/06 02:11:20;;;;;;;3.38;1.50;;;13.90;99.90;;;;;;5012685;28;20050;-64
2022/07/06 02:13:46;;;;;;;7.28;1.90;;;13.90;99.90;;;;;;5013328;28;20045;-64
2022/07/06 02:16:11;;;;;;;3.40;1.60;;;13.80;99.90;;;;;;5009717;28;20045;-65
2022/07/06 02:18:37;;;;;;;4.07;1.73;;;13.80;99.90;;;;;;5012065;28;20034;-65
2022/07/06 02:21:06;;;;;;;5.28;1.58;;;13.80;99.90;;;;;;5012127;28;20038;-65
2022/07/06 02:23:32;;;;;;;5.10;1.50;;;13.80;99.90;;;;;;5012163;28;20073;-65
2022/07/06 02:25:58;;;;;;;5.53;1.65;;;13.80;99.90;;;;;;5012161;28;20134;-65
2022/07/06 02:28:24;;;;;;;5.15;1.55;;;13.80;99.90;;;;;;5011864;28;20049;-65
2022/07/06 02:30:50;;;;;;;6.40;2.10;;;13.80;99.90;;;;;;5012002;28;20034;-65
2022/07/06 02:33:15;;;;;;;4.93;1.75;;;13.80;99.90;;;;;;5011779;28;20056;-65
2022/07/06 02:35:44;;;;;;;4.43;1.52;;;13.80;99.90;;;;;;5011919;28;20081;-65
2022/07/06 02:38:10;;;;;;;3.42;1.73;;;13.80;99.90;;;;;;5011882;28;20475;-65
2022/07/06 02:40:36;;;;;;;4.18;1.65;;;13.80;99.90;;;;;;5013173;28;20116;-65
2022/07/06 02:43:02;;;;;;;2.22;1.42;;;13.80;99.90;;;;;;5011836;28;20144;-65
2022/07/06 02:45:28;;;;;;;6.22;1.48;;;13.80;99.90;;;;;;5009420;28;20050;-65
2022/07/06 02:47:55;;;;;;;5.43;1.20;;;13.80;99.90;;;;;;4995461;28;20064;-65
2022/07/06 02:50:21;;;;;;;2.75;1.20;;;13.80;99.90;;;;;;5012761;28;20472;-65
2022/07/06 02:52:47;;;;;;;6.55;1.38;;;13.90;99.90;;;;;;5012631;28;20129;-65
2022/07/06 02:55:13;;;;;;;5.47;1.33;;;13.80;99.90;;;;;;4995034;28;20400;-65
2022/07/06 02:57:39;;;;;;;4.07;1.20;;;13.80;99.90;;;;;;5012553;28;20073;-65
2022/07/06 03:00:06;;;;;;;5.68;1.00;;;13.80;99.90;;;;;;5011355;28;20500;-65
2022/07/06 03:02:32;;;;;;;3.70;1.10;;;13.80;99.90;;;;;;5011160;28;20527;-65
2022/07/06 03:04:57;;;;;;;5.13;1.20;;;13.80;99.90;;;;;;5011269;28;20342;-65
2022/07/06 03:07:24;;;;;;;4.88;1.45;;;13.80;99.90;;;;;;5011478;28;20419;-64
2022/07/06 03:09:50;;;;;;;5.05;1.25;;;13.80;99.90;;;;;;4988246;28;20042;-64
2022/07/06 03:12:16;;;;;;;4.53;1.27;;;13.80;99.90;;;;;;4992807;28;20042;-64
2022/07/06 03:14:42;;;;;;;3.35;1.10;;;13.80;99.90;;;;;;4990096;28;20042;-65
2022/07/06 03:17:08;;;;;;;3.88;1.73;;;13.80;99.90;;;;;;4990739;28;20512;-64
2022/07/06 03:19:34;;;;;;;4.78;1.20;;;13.80;99.90;;;;;;4991466;28;20038;-64
2022/07/06 03:22:00;;;;;;;4.93;1.48;;;13.80;99.90;;;;;;4992835;28;20512;-64
2022/07/06 03:24:26;;;;;;;4.80;1.50;;;13.80;99.90;;;;;;4991721;28;20031;-64
2022/07/06 03:26:52;;;;;;;4.90;1.17;;;13.70;99.90;;;;;;4992752;28;20400;-64
2022/07/06 03:29:18;;;;;;;5.60;1.20;;;13.70;99.90;;;;;;4992504;28;20412;-64
2022/07/06 03:31:44;;;;;;;5.85;1.20;;;13.80;99.90;;;;;;4991584;28;20172;-64
2022/07/06 03:34:09;;;;;;;8.60;1.40;;;13.70;99.90;;;;;;4991291;28;20414;-64
2022/07/06 03:36:35;;;;;;;4.78;0.98;;;13.70;99.90;;;;;;4991194;28;20133;-64
2022/07/06 03:39:01;;;;;;;6.00;1.23;;;13.70;99.90;;;;;;4992751;28;20039;-64
2022/07/06 03:41:27;;;;;;;5.25;1.25;;;13.70;99.90;;;;;;4991277;28;20489;-65
2022/07/06 03:43:53;;;;;;;5.50;1.10;;;13.70;99.90;;;;;;4991102;28;20100;-65
2022/07/06 03:46:18;;;;;;;2.03;1.17;;;13.70;99.90;;;;;;4990147;28;20050;-65
2022/07/06 03:48:44;;;;;;;2.90;0.90;;;13.70;99.90;;;;;;4992316;28;20045;-65
2022/07/06 03:51:10;;;;;;;2.28;1.10;;;13.70;99.90;;;;;;4991573;28;20051;-65
2022/07/06 03:53:36;;;;;;;3.05;0.95;;;13.70;99.90;;;;;;4992239;28;20515;-65
2022/07/06 03:59:02;;;;;;;5.95;1.00;;;13.70;99.90;;;;;;4948903;28;20038;-65
2022/07/06 04:01:29;;;;;;;3.88;1.00;;;13.70;99.90;;;;;;4991896;28;20516;-65
2022/07/06 04:03:55;;;;;;;3.40;1.20;;;13.70;99.90;;;;;;4995561;28;20054;-65
2022/07/06 04:06:21;;;;;;;4.82;1.10;;;13.70;99.90;;;;;;5010531;28;20050;-65
2022/07/06 04:08:47;;;;;;;4.00;0.80;;;13.70;99.90;;;;;;5010361;28;20050;-65
2022/07/06 04:11:13;;;;;;;4.45;0.90;;;13.70;99.90;;;;;;5010473;28;20049;-65
2022/07/06 04:13:39;;;;;;;2.97;0.93;;;13.70;99.90;;;;;;5011677;28;20100;-65
2022/07/06 04:16:06;;;;;;;3.05;0.93;;;13.70;99.90;;;;;;5007955;28;20078;-65
2022/07/06 04:18:32;;;;;;;5.82;1.67;;;13.60;99.90;;;;;;5010343;28;20049;-65
2022/07/06 04:20:58;;;;;;;2.88;1.00;;;13.60;99.90;;;;;;5010431;28;20041;-65
2022/07/06 04:23:25;;;;;;;3.88;1.17;;;13.60;99.90;;;;;;5010767;28;20041;-65
2022/07/06 04:25:50;;;;;;;4.15;0.90;;;13.70;99.90;;;;;;5010520;28;20053;-65
2022/07/06 04:28:16;;;;;;;4.22;1.20;;;13.70;99.90;;;;;;5010373;28;20038;-65
2022/07/06 04:30:42;;;;;;;6.07;1.40;;;13.70;99.90;;;;;;5011538;28;20042;-65
2022/07/06 04:33:08;;;;;;;3.92;1.13;;;13.80;99.90;;;;;;5012175;28;20500;-65
2022/07/06 04:35:34;;;;;;;5.53;1.45;;;13.80;99.90;;;;;;5014113;28;20129;-65
2022/07/06 04:38:00;;;;;;;8.20;1.90;;;13.80;99.90;;;;;;5015360;28;20658;-65
2022/07/06 04:40:26;;;;;;;7.88;1.80;;;13.90;99.90;;;;;;5015179;28;20042;-65
2022/07/06 04:42:52;;;;;;;5.60;1.77;;;13.90;99.90;;;;;;5015106;28;20073;-65
2022/07/06 04:45:17;;;;;;;6.95;2.35;;;13.90;99.90;;;;;;5011247;28;20053;-65
2022/07/06 04:47:44;;;;;;;5.80;1.80;;;13.90;99.90;;;;;;5013686;28;20049;-65
2022/07/06 04:50:10;;;;;;;2.95;1.40;;;13.90;99.90;;;;;;5013644;28;20124;-65
2022/07/06 04:52:36;;;;;;;6.38;1.73;;;13.90;99.90;;;;;;5012780;28;20046;-65
2022/07/06 04:55:04;;;;;;;5.20;1.67;;;14.00;99.90;;;;;;5014556;28;20046;-65
2022/07/06 04:57:30;;;;;;;5.45;1.50;;;14.00;99.90;;;;;;5013902;28;20385;-65
2022/07/06 04:59:56;;;;;;;6.40;1.55;;;14.00;99.90;;;;;;5013388;28;20042;-65
2022/07/06 05:02:22;;;;;;;4.60;1.10;;;14.10;99.90;;;;;;5013324;28;20136;-65
2022/07/06 05:04:48;;;;;;;5.90;1.45;;;14.10;99.90;;;;;;5013356;28;20081;-65
2022/07/06 05:07:14;;;;;;;5.72;1.30;;;14.10;99.90;;;;;;5013223;28;20077;-65
2022/07/06 05:09:40;;;;;;;6.30;1.60;;;14.20;99.90;;;;;;5013263;28;20100;-65
2022/07/06 05:12:07;;;;;;;6.38;1.40;;;14.20;99.90;;;;;;5013316;28;20116;-65
2022/07/06 05:14:33;;;;;;;6.45;1.10;;;14.30;99.90;;;;;;5013161;28;20172;-65
2022/07/06 05:16:59;;;;;;;4.57;1.17;;;14.30;99.90;;;;;;5010801;28;20038;-65
2022/07/06 05:19:25;;;;;;;6.43;1.52;;;14.30;99.90;;;;;;5013126;28;20104;-65
2022/07/06 05:21:51;;;;;;;5.10;0.93;;;14.30;99.90;;;;;;4997043;28;20042;-65
2022/07/06 05:24:16;;;;;;;2.28;0.90;;;14.30;99.90;;;;;;5013316;28;20464;-65
2022/07/06 05:26:42;;;;;;;5.32;0.98;;;14.40;99.90;;;;;;5014342;28;20038;-65
2022/07/06 05:29:08;;;;;;;4.43;1.02;;;14.50;99.90;;;;;;4996491;28;20041;-65
2022/07/06 05:31:34;;;;;;;3.83;0.93;;;14.50;99.90;;;;;;4996665;28;20046;-65
2022/07/06 05:34:00;;;;;;;6.28;1.63;;;14.60;99.90;;;;;;5012832;28;20042;-65
2022/07/06 05:36:27;;;;;;;3.45;0.80;;;14.70;99.90;;;;;;5014614;28;20053;-65
2022/07/06 05:38:53;;;;;;;4.70;1.05;;;14.70;99.90;;;;;;5013084;28;20408;-65
2022/07/06 05:41:19;;;;;;;6.22;1.67;;;14.80;99.90;;;;;;5013113;28;20046;-65
2022/07/06 05:43:44;;;;;;;6.18;0.80;;;14.80;99.90;;;;;;5011967;28;20550;-65
2022/07/06 05:46:10;;;;;;;6.53;1.02;;;14.80;99.90;;;;;;4993561;28;20064;-65
2022/07/06 05:51:20;;;;;;;2.60;1.20;;;14.90;99.90;;;;;;5012673;28;20060;-65
2022/07/06 05:53:47;;;;;;;4.32;1.02;;;14.90;99.90;;;;;;5014604;28;20041;-65
2022/07/06 05:56:13;;;;;;;4.95;1.40;;;15.00;99.90;;;;;;5013133;28;20042;-65
2022/07/06 05:58:39;;;;;;;4.00;0.98;;;15.00;99.90;;;;;;4997303;28;20045;-65
2022/07/06 06:01:07;;;;;;;3.35;0.90;;;15.00;99.90;;;;;;5014436;28;20487;-65
2022/07/06 06:03:33;;;;;;;2.83;1.20;;;15.00;99.90;;;;;;5013057;28;20543;-65
2022/07/06 06:05:59;;;;;;;5.05;0.82;;;15.00;99.90;;;;;;5013395;28;20064;-65
2022/07/06 06:08:25;;;;;;;6.97;0.85;;;15.00;99.90;;;;;;5013478;28;20499;-65
2022/07/06 06:10:52;;;;;;;4.07;0.90;;;15.10;99.90;;;;;;4998404;28;20046;-65
2022/07/06 06:13:18;;;;;;;5.20;1.17;;;15.10;99.90;;;;;;4992633;28;20076;-66
2022/07/06 06:15:44;;;;;;;2.17;0.55;;;15.10;99.90;;;;;;4989993;28;20046;-65
2022/07/06 06:18:10;;;;;;;3.97;0.77;;;15.10;99.90;;;;;;4992840;28;20085;-65
2022/07/06 06:20:36;;;;;;;2.70;0.80;;;15.10;99.90;;;;;;4992730;28;20504;-65
2022/07/06 06:23:04;;;;;;;4.45;0.82;;;15.20;99.90;;;;;;4993689;28;20077;-65
2022/07/06 06:25:31;;;;;;;3.65;0.88;;;15.20;99.90;;;;;;4993415;28;20038;-65
2022/07/06 06:27:57;;;;;;;4.90;0.85;;;15.30;99.90;;;;;;4993888;28;20042;-65
2022/07/06 06:30:22;;;;;;;3.22;0.70;;;15.30;99.90;;;;;;4992946;28;20509;-65
2022/07/06 06:32:48;;;;;;;3.30;0.90;;;15.40;99.90;;;;;;4994367;28;20477;-65
2022/07/06 06:35:14;;;;;;;3.67;0.70;;;15.50;99.90;;;;;;5000151;28;20073;-64
2022/07/06 06:37:40;;;;;;;2.88;0.50;;;15.70;99.90;;;;;;5011251;28;20050;-65
2022/07/06 06:40:07;;;;;;;2.78;0.75;;;16.00;99.90;;;;;;5030098;28;20052;-65
2022/07/06 06:42:35;;;;;;;1.70;0.60;;;16.40;99.90;;;;;;5028411;28;20168;-64
2022/07/06 06:45:01;;;;;;;3.85;0.68;;;16.70;99.90;;;;;;4992838;28;20156;-64
2022/07/06 06:47:26;;;;;;;3.03;0.70;;;16.90;99.90;;;;;;5011623;28;20128;-64
2022/07/06 06:49:52;;;;;;;3.03;0.60;;;17.00;99.90;;;;;;5012820;28;20050;-63
2022/07/06 06:52:18;;;;;;;3.63;0.60;;;17.00;99.90;;;;;;4995923;28;20104;-65
2022/07/06 06:54:44;;;;;;;4.70;0.73;;;16.80;99.90;;;;;;5015495;28;20041;-64
2022/07/06 06:57:09;;;;;;;2.33;0.70;;;16.60;99.90;;;;;;5031856;28;20038;-64
2022/07/06 06:59:36;;;;;;;3.58;0.70;;;16.40;99.90;;;;;;5031896;28;20080;-66
2022/07/06 07:02:02;;;;;;;1.98;0.50;;;16.50;99.90;;;;;;5031929;28;20144;-65
2022/07/06 07:04:29;;;;;;;3.75;1.13;;;16.70;99.90;;;;;;5033238;28;20491;-64
2022/07/06 07:06:55;;;;;;;5.85;1.50;;;16.90;99.90;;;;;;5032022;28;20077;-65
2022/07/06 07:09:20;;;;;;;3.28;0.85;;;17.00;99.90;;;;;;5029203;28;20100;-65
2022/07/06 07:11:46;;;;;;;2.30;0.70;;;17.20;99.90;;;;;;5012096;28;20117;-66
2022/07/06 07:14:12;;;;;;;2.45;0.60;;;17.40;99.90;;;;;;5011719;28;20046;-64
2022/07/06 07:16:38;;;;;;;3.47;1.17;;;17.70;99.90;;;;;;5009797;28;20057;-64
2022/07/06 07:19:04;;;;;;;2.80;0.50;;;17.90;99.90;;;;;;5013006;28;20421;-64
2022/07/06 07:21:29;;;;;;;5.22;0.93;;;18.10;99.90;;;;;;5011168;28;20045;-65
2022/07/06 07:23:55;;;;;;;1.98;0.50;;;18.30;99.90;;;;;;5012193;28;20484;-64
2022/07/06 07:26:21;;;;;;;3.28;1.13;;;18.50;99.90;;;;;;5010960;28;20180;-64
2022/07/06 07:28:47;;;;;;;2.88;0.50;;;18.70;99.90;;;;;;5011031;28;20046;-65
2022/07/06 07:31:13;;;;;;;2.15;0.40;;;19.00;99.90;;;;;;5015819;28;20045;-64
2022/07/06 07:33:39;;;;;;;3.38;0.47;;;19.10;99.90;;;;;;5031704;28;20419;-64
2022/07/06 07:36:05;;;;;;;3.47;0.50;;;19.00;99.90;;;;;;5032752;28;20050;-64
2022/07/06 07:38:31;;;;;;;3.05;0.57;;;19.20;99.90;;;;;;5015056;28;20042;-66
2022/07/06 07:40:57;;;;;;;2.40;0.50;;;19.50;99.90;;;;;;5032494;28;20052;-64
2022/07/06 07:43:22;;;;;;;2.33;0.40;;;19.40;99.90;;;;;;5031708;28;20076;-65
2022/07/06 07:45:49;;;;;;;2.03;0.50;;;19.20;99.90;;;;;;5012524;28;20479;-64
2022/07/06 07:48:15;;;;;;;2.67;0.60;;;18.90;99.90;;;;;;5032753;28;20041;-64
2022/07/06 07:50:42;;;;;;;3.95;0.60;;;18.70;99.90;;;;;;5014968;28;20485;-64
2022/07/06 07:53:07;;;;;;;2.10;0.50;;;18.40;99.90;;;;;;5031156;28;20045;-64
2022/07/06 07:55:33;;;;;;;3.38;0.43;;;18.20;99.90;;;;;;5014987;28;20041;-65
2022/07/06 07:57:59;;;;;;;5.22;0.70;;;18.00;99.90;;;;;;5015131;28;20376;-64
2022/07/06 08:00:26;;;;;;;1.52;0.40;;;17.80;99.90;;;;;;5014845;28;20124;-64
2022/07/06 08:02:52;;;;;;;2.90;0.70;;;17.70;99.90;;;;;;5031040;28;20062;-64
2022/07/06 08:05:18;;;;;;;3.22;0.65;;;17.70;99.90;;;;;;5032437;28;20088;-65
2022/07/06 08:07:44;;;;;;;2.10;0.63;;;17.80;99.90;;;;;;5033745;28;20088;-64
2022/07/06 08:10:10;;;;;;;2.22;0.40;;;18.00;99.90;;;;;;5009422;28;20042;-64
2022/07/06 08:12:36;;;;;;;0.73;0.40;;;18.50;99.90;;;;;;5015555;28;20116;-64
2022/07/06 08:15:03;;;;;;;2.90;0.40;;;18.90;99.90;;;;;;5014374;28;20046;-66
2022/07/06 08:17:29;;;;;;;2.22;0.50;;;19.40;99.90;;;;;;5016432;28;20065;-64
2022/07/06 08:19:55;;;;;;;3.78;0.60;;;19.60;99.90;;;;;;5015461;28;20042;-64
2022/07/06 08:22:21;;;;;;;3.38;0.47;;;19.90;99.90;;;;;;5015180;28;20488;-64
2022/07/06 08:24:47;;;;;;;3.13;0.60;;;19.90;99.90;;;;;;5015427;28;20077;-64
2022/07/06 08:27:13;;;;;;;5.53;0.60;;;19.70;99.90;;;;;;5015044;28;20060;-64
2022/07/06 08:29:38;;;;;;;5.32;0.82;;;19.40;99.90;;;;;;5016187;28;20053;-65
2022/07/06 08:32:04;;;;;;;1.80;0.40;;;19.40;99.90;;;;;;5026174;28;20117;-65
2022/07/06 08:34:30;;;;;;;1.48;0.45;;;19.50;99.90;;;;;;5036057;28;20073;-64
2022/07/06 08:36:56;;;;;;;2.55;0.70;;;19.50;99.90;;;;;;5034000;28;20096;-64
2022/07/06 08:39:22;;;;;;;3.83;0.40;;;19.60;99.90;;;;;;5035542;28;20037;-66
2022/07/06 08:41:48;;;;;;;4.30;0.70;;;19.70;99.90;;;;;;5035671;28;20045;-65
2022/07/06 08:44:15;;;;;;;1.35;0.30;;;19.80;99.90;;;;;;5034641;28;20120;-64
2022/07/06 08:46:42;;;;;;;2.97;0.60;;;20.10;99.90;;;;;;5016094;28;20106;-64
2022/07/06 08:49:08;;;;;;;2.35;0.40;;;20.50;99.90;;;;;;5034518;28;20041;-64
2022/07/06 08:51:37;;;;;;;0.82;0.25;;;20.70;99.90;;;;;;5034823;28;20052;-66
2022/07/06 08:54:04;;;;;;;3.28;0.75;;;20.60;99.90;;;;;;5034810;28;20042;-64
2022/07/06 08:56:30;;;;;;;2.53;0.70;;;20.30;99.90;;;;;;5033538;28;20041;-65
2022/07/06 08:58:56;;;;;;;2.25;0.45;;;19.90;99.90;;;;;;5033348;28;20134;-64
2022/07/06 09:01:22;;;;;;;2.58;0.45;;;19.70;99.90;;;;;;5034624;28;20041;-64
2022/07/06 09:03:53;;;;;;;3.28;0.60;;;19.80;99.90;;;;;;5032871;28;20072;-64
2022/07/06 09:06:24;;;;;;;1.88;0.30;;;20.10;99.90;;;;;;5033492;28;20111;-64
2022/07/06 09:08:55;;;;;;;2.95;0.50;;;20.20;99.90;;;;;;5034788;28;20111;-66
2022/07/06 09:11:23;;;;;;;2.95;0.50;;;19.90;99.90;;;;;;5014785;28;20073;-65
2022/07/06 09:13:51;;;;;;;2.38;0.50;;;19.70;99.90;;;;;;5015312;28;20060;-64
2022/07/06 09:16:17;;;;;;;2.72;0.40;;;19.50;99.90;;;;;;5012026;28;20045;-64
2022/07/06 09:18:47;;;;;;;1.70;0.40;;;19.50;99.90;;;;;;5014996;28;20073;-64
2022/07/06 09:21:30;;;;;;;1.77;0.35;;;19.70;99.90;;;;;;5014090;28;20080;-64
2022/07/06 09:23:59;;;;;;;1.60;0.40;;;20.00;99.90;;;;;;5015397;28;20084;-65
2022/07/06 09:26:25;;;;;;;3.47;0.55;;;20.40;99.90;;;;;;5015254;28;20104;-64
2022/07/06 09:28:51;;;;;;;1.23;0.55;;;20.90;99.90;;;;;;5013798;28;20092;-65
2022/07/06 09:31:18;;;;;;;3.72;0.60;;;21.30;99.90;;;;;;5018530;28;20041;-64
2022/07/06 09:34:09;;;;;;;2.30;0.50;;;21.60;99.90;;;;;;5032708;28;20144;-65
2022/07/06 09:36:48;;;;;;;2.80;0.57;;;21.70;99.90;;;;;;5032701;28;20057;-65
2022/07/06 09:39:22;;;;;;;2.67;0.50;;;21.50;99.90;;;;;;5032571;28;20038;-66
2022/07/06 09:41:50;;;;;;;3.30;0.60;;;21.20;99.90;;;;;;5033212;28;20049;-65
2022/07/06 09:44:33;;;;;;;1.50;0.40;;;21.00;99.90;;;;;;5017004;28;20128;-66
2022/07/06 09:47:01;;;;;;;1.42;0.30;;;21.10;99.90;;;;;;5031805;28;20080;-65
2022/07/06 09:49:27;;;;;;;2.38;0.52;;;21.00;99.90;;;;;;5033612;28;20588;-67
2022/07/06 09:52:01;;;;;;;2.50;0.50;;;20.80;99.90;;;;;;5032433;28;20045;-64
2022/07/06 09:54:27;;;;;;;1.20;0.40;;;20.40;99.90;;;;;;5015756;28;20037;-64
2022/07/06 09:56:55;;;;;;;2.53;0.63;;;20.10;99.90;;;;;;5033497;28;20050;-65
2022/07/06 09:59:26;;;;;;;2.72;0.52;;;20.20;99.90;;;;;;5033422;28;20041;-65
2022/07/06 10:01:55;;;;;;;2.42;0.50;;;20.70;99.90;;;;;;5032004;28;20033;-66
2022/07/06 10:04:22;;;;;;;;;;;21.10;99.90;;;;;;5032804;28;20254;-67
2022/07/06 10:06:49;;;;;;;1.55;0.40;;;21.60;99.90;;;;;;5032126;28;19960;-68
2022/07/06 10:09:15;;;;;;;1.40;0.32;;;21.90;99.90;;;;;;5031466;28;20041;-64
2022/07/06 10:11:45;;;;;;;3.38;0.63;;;22.00;99.90;;;;;;5013514;28;20513;-64
2022/07/06 10:14:13;;;;;;;;;;;22.00;99.90;;;;;;5013787;28;20077;-65
2022/07/06 10:16:39;;;;;;;2.78;0.50;;;21.80;99.90;;;;;;5042910;28;20423;-65
2022/07/06 10:19:09;;;;;;;2.10;0.60;;;21.40;99.90;;;;;;5013296;28;20066;-65
2022/07/06 10:21:38;;;;;;;;;;;21.00;99.90;;;;;;5014053;28;20077;-65
2022/07/06 10:24:06;;;;;;;2.25;0.55;;;20.70;99.90;;;;;;5045088;28;20363;-65
2022/07/06 10:26:36;;;;;;;1.85;0.47;;;20.70;99.90;;;;;;5011492;28;20427;-65
2022/07/06 10:29:03;;;;;;;2.55;0.63;;;20.90;99.90;;;;;;5012545;28;20077;-65
2022/07/06 10:31:30;;;;;;;2.08;0.50;;;21.40;99.90;;;;;;5018173;28;20113;-66
2022/07/06 10:33:58;;;;;;;3.08;0.70;;;21.90;99.90;;;;;;5021407;28;20080;-65
2022/07/06 10:36:24;;;;;;;1.58;0.45;;;22.10;99.90;;;;;;4994486;28;20038;-64
2022/07/06 10:38:52;;;;;;;2.78;0.40;;;22.30;99.90;;;;;;4992768;28;20042;-66
2022/07/06 10:41:19;;;;;;;2.08;0.50;;;22.60;99.90;;;;;;4992112;28;20102;-64
2022/07/06 10:43:48;;;;;;;2.60;0.50;;;22.80;99.90;;;;;;4993685;28;20131;-64
2022/07/06 10:46:19;;;;;;;;;;;23.00;99.90;;;;;;5002135;28;20408;-64
2022/07/06 10:48:47;;;;;;;2.08;0.43;;;23.10;99.90;;;;;;5011809;28;20008;-66
2022/07/06 10:51:33;;;;;;;3.35;0.70;;;23.10;99.80;;;;;;5012358;28;20042;-65
2022/07/06 10:54:05;;;;;;;1.35;0.60;;;22.90;98.60;;;;;;5011371;28;20045;-66
2022/07/06 10:56:49;;;;;;;1.00;0.38;;;22.80;97.70;;;;;;4994913;28;20495;-65
2022/07/06 10:59:22;;;;;;;1.75;0.40;;;22.90;98.00;;;;;;5011548;28;20488;-64
2022/07/06 11:02:11;;;;;;;1.17;0.40;;;23.10;96.60;;;;;;5010999;28;20567;-65
2022/07/06 11:04:38;;;;;;;2.42;0.45;;;23.40;96.90;;;;;;5011260;28;20042;-64
2022/07/06 11:07:10;;;;;;;4.32;0.80;;;23.50;97.80;;;;;;5011397;28;20048;-65
2022/07/06 11:09:37;;;;;;;1.30;0.45;;;23.70;97.40;;;;;;5006673;28;20124;-64
2022/07/06 11:12:21;;;;;;;1.60;0.43;;;23.70;96.00;;;;;;5000337;28;20038;-64
2022/07/06 11:14:48;;;;;;;0.98;0.50;;;23.70;96.70;;;;;;5010717;28;20041;-64
2022/07/06 11:17:15;;;;;;;1.95;0.40;;;23.80;96.20;;;;;;5010410;28;20045;-65
2022/07/06 11:19:58;;;;;;;2.80;0.50;;;23.80;94.20;;;;;;5011062;28;20041;-64
2022/07/06 11:22:26;;;;;;;1.67;0.30;;;23.60;93.10;;;;;;5011337;28;20447;-65
2022/07/06 11:24:53;;;;;;;3.22;0.60;;;23.70;93.60;;;;;;5010934;28;20042;-67
2022/07/06 11:27:22;;;;;;;3.20;0.60;;;23.80;94.30;;;;;;5011843;28;20042;-64
2022/07/06 11:29:48;;;;;;;3.28;0.70;;;23.90;94.60;;;;;;5012976;28;20053;-64
2022/07/06 11:32:15;;;;;;;1.42;0.60;;;24.00;93.60;;;;;;5024428;28;20422;-64
2022/07/06 11:34:42;;;;;;;1.38;0.45;;;24.00;92.70;;;;;;5031052;28;20098;-66
2022/07/06 11:37:13;;;;;;;0.88;0.38;;;24.00;92.50;;;;;;5030588;28;20041;-64
2022/07/06 11:39:42;;;;;;;2.33;0.77;;;24.00;93.10;;;;;;5031778;28;20192;-66
2022/07/06 11:42:09;;;;;;;2.53;0.60;;;23.80;93.10;;;;;;5014417;28;20041;-64
2022/07/06 11:44:36;;;;;;;2.42;0.47;;;23.90;95.20;;;;;;5006782;28;20038;-65
2022/07/06 11:47:03;;;;;;;2.50;0.52;;;24.10;93.90;;;;;;4989803;28;20124;-64
2022/07/06 11:49:34;;;;;;;3.78;0.80;;;24.20;92.90;;;;;;4991640;28;20504;-66
2022/07/06 11:52:00;;;;;;;2.15;0.40;;;24.20;94.50;;;;;;4991529;28;20169;-66
2022/07/06 11:54:26;;;;;;;1.63;0.73;;;24.20;94.40;;;;;;4992986;28;20672;-64
2022/07/06 11:57:00;;;;;;;3.15;0.55;;;24.30;91.90;;;;;;4991108;28;20046;-65
2022/07/06 11:59:28;;;;;;;2.33;0.50;;;24.00;90.70;;;;;;4975118;28;20049;-69
2022/07/06 12:02:04;;;;;;;1.65;0.40;;;23.90;91.20;;;;;;4991516;28;20117;-66
2022/07/06 12:04:33;;;;;;;3.10;0.60;;;23.90;91.50;;;;;;4975749;28;20046;-66
2022/07/06 12:07:07;;;;;;;2.40;0.60;;;23.80;91.50;;;;;;4975656;28;20521;-67
2022/07/06 12:09:38;;;;;;;1.70;0.50;;;23.60;91.40;;;;;;4997345;28;20110;-66
2022/07/06 12:12:05;;;;;;;3.05;0.90;;;23.60;90.40;;;;;;5012824;28;20046;-66
2022/07/06 12:14:32;;;;;;;1.33;0.40;;;23.60;89.20;;;;;;5011473;28;20042;-68
2022/07/06 12:17:06;;;;;;;1.58;0.35;;;23.60;91.00;;;;;;5009202;28;20045;-65
2022/07/06 12:19:33;;;;;;;1.77;0.60;;;23.50;91.70;;;;;;5012379;28;20030;-66
2022/07/06 12:22:01;;;;;;;1.63;0.40;;;23.40;91.00;;;;;;5010364;28;20054;-66
2022/07/06 12:24:32;;;;;;;2.88;0.50;;;23.40;90.30;;;;;;5010406;28;20037;-67
2022/07/06 12:27:09;;;;;;;1.85;0.30;;;23.30;90.00;;;;;;5009576;28;20057;-66
2022/07/06 12:29:36;;;;;;;3.53;1.00;;;23.30;90.00;;;;;;4994979;28;20399;-66
2022/07/06 12:32:02;;;;;;;1.88;0.63;;;23.30;90.00;;;;;;5021765;28;20121;-68
2022/07/06 12:34:35;;;;;;;1.45;0.50;;;23.40;91.40;;;;;;5030756;28;20056;-66
2022/07/06 12:37:07;;;;;;;3.33;0.65;;;23.50;90.00;;;;;;5031486;28;20129;-64
2022/07/06 12:39:44;;;;;;;1.10;0.30;;;23.20;89.00;;;;;;5026297;28;20091;-68
2022/07/06 12:42:10;;;;;;;1.98;0.60;;;23.10;89.60;;;;;;5008466;28;20038;-65
2022/07/06 12:44:52;;;;;;;1.60;0.40;;;23.00;88.80;;;;;;4991676;28;20038;-65
2022/07/06 12:47:24;;;;;;;3.40;0.70;;;22.90;90.10;;;;;;4990485;28;20193;-68
2022/07/06 12:50:08;;;;;;;3.97;0.80;;;22.80;89.80;;;;;;4991488;28;20101;-67
2022/07/06 12:52:34;;;;;;;2.88;0.52;;;22.70;90.50;;;;;;4992690;28;20050;-63
2022/07/06 12:55:01;;;;;;;4.03;0.80;;;22.70;89.20;;;;;;4995655;28;20081;-64